createdAt,value
2022-10-19T00:02:06.807Z,35.05
2022-10-19T00:04:33.197Z,38.80
2022-10-19T00:06:59.602Z,38.85
2022-10-19T00:09:25.961Z,35.78
2022-10-19T00:11:52.421Z,41.03
2022-10-19T00:14:23.693Z,40.92
2022-10-19T00:16:52.204Z,39.50
2022-10-19T00:19:24.143Z,37.25
2022-10-19T00:24:22.298Z,42.70
2022-10-19T00:26:48.856Z,38.72
2022-10-19T00:29:15.647Z,35.07
2022-10-19T00:31:42.378Z,38.35
2022-10-19T00:34:09.613Z,36.20
2022-10-19T00:36:39.145Z,38.38
2022-10-19T00:39:07.668Z,36.78
2022-10-19T00:41:36.099Z,31.23
2022-10-19T00:44:10.015Z,31.38
2022-10-19T00:46:38.995Z,30.48
2022-10-19T00:49:19.221Z,30.02
2022-10-19T00:51:50.992Z,35.63
2022-10-19T00:54:18.295Z,31.03
2022-10-19T00:56:47.425Z,26.00
2022-10-19T00:59:16.458Z,31.48
2022-10-19T01:01:45.433Z,24.95
2022-10-19T01:04:13.215Z,27.60
2022-10-19T01:06:40.805Z,31.10
2022-10-19T01:09:08.061Z,29.02
2022-10-19T01:11:46.185Z,25.58
2022-10-19T01:14:31.899Z,25.95
2022-10-19T01:17:07.035Z,29.88
2022-10-19T01:19:55.333Z,28.00
2022-10-19T01:22:47.975Z,28.02
2022-10-19T01:25:30.484Z,29.40
2022-10-19T01:28:08.633Z,31.73
2022-10-19T01:30:55.397Z,29.98
2022-10-19T01:33:41.237Z,32.43
2022-10-19T01:36:21.547Z,33.03
2022-10-19T01:38:59.180Z,28.17
2022-10-19T01:41:38.782Z,30.85
2022-10-19T01:44:25.412Z,31.48
2022-10-19T01:46:59.169Z,32.10
2022-10-19T01:49:34.011Z,38.63
2022-10-19T01:52:05.187Z,38.25
2022-10-19T01:54:37.624Z,36.28
2022-10-19T01:57:08.292Z,41.08
2022-10-19T01:59:36.315Z,33.97
2022-10-19T02:02:06.018Z,32.53
2022-10-19T02:04:34.592Z,33.55
2022-10-19T02:07:02.848Z,36.10
2022-10-19T02:09:29.235Z,37.15
2022-10-19T02:11:59.244Z,30.07
2022-10-19T02:14:32.815Z,30.58
2022-10-19T02:17:07.273Z,34.80
2022-10-19T02:19:33.720Z,28.00
2022-10-19T02:22:00.318Z,32.05
2022-10-19T02:24:26.774Z,34.00
2022-10-19T02:26:54.267Z,27.60
2022-10-19T02:29:20.871Z,35.38
2022-10-19T02:31:47.528Z,31.42
2022-10-19T02:34:14.318Z,28.50
2022-10-19T02:36:40.941Z,27.77
2022-10-19T02:39:08.109Z,28.70
2022-10-19T02:41:43.074Z,31.52
2022-10-19T02:44:18.182Z,34.25
2022-10-19T02:46:50.095Z,30.80
2022-10-19T02:49:16.810Z,32.60
2022-10-19T02:52:07.765Z,29.52
2022-10-19T02:54:34.446Z,30.33
2022-10-19T02:57:01.354Z,32.90
2022-10-19T02:59:27.694Z,33.70
2022-10-19T03:01:54.061Z,30.57
2022-10-19T03:04:20.412Z,29.60
2022-10-19T03:06:47.204Z,27.25
2022-10-19T03:09:13.563Z,28.85
2022-10-19T03:11:39.915Z,31.52
2022-10-19T03:14:06.260Z,31.17
2022-10-19T03:16:32.660Z,32.67
2022-10-19T03:18:58.982Z,29.50
2022-10-19T03:21:25.323Z,29.88
2022-10-19T03:23:51.668Z,32.63
2022-10-19T03:26:18.200Z,28.83
2022-10-19T03:28:44.837Z,29.42
2022-10-19T03:31:11.500Z,29.73
2022-10-19T03:33:37.844Z,26.85
2022-10-19T03:36:21.088Z,32.92
2022-10-19T03:38:50.221Z,32.17
2022-10-19T03:41:16.578Z,34.85
2022-10-19T03:43:42.926Z,28.42
2022-10-19T03:46:09.680Z,36.47
2022-10-19T03:48:36.150Z,30.08
2022-10-19T03:51:08.850Z,29.83
2022-10-19T03:53:35.934Z,33.30
2022-10-19T03:56:08.618Z,27.95
2022-10-19T03:58:37.040Z,30.83
2022-10-19T04:01:08.189Z,27.80
2022-10-19T04:06:21.337Z,31.90
2022-10-19T04:08:49.987Z,27.35
2022-10-19T04:11:18.852Z,27.08
2022-10-19T04:13:48.631Z,29.33
2022-10-19T04:16:14.987Z,29.17
2022-10-19T04:18:41.341Z,31.52
2022-10-19T04:21:07.800Z,32.38
2022-10-19T04:23:36.001Z,40.78
2022-10-19T04:26:05.346Z,37.55
2022-10-19T04:28:32.464Z,29.73
2022-10-19T04:31:02.609Z,33.00
2022-10-19T04:33:28.959Z,30.65
2022-10-19T04:36:03.550Z,33.03
2022-10-19T04:38:30.036Z,28.35
2022-10-19T04:41:00.510Z,41.57
2022-10-19T04:43:26.857Z,33.25
2022-10-19T04:45:53.239Z,39.53
2022-10-19T04:48:19.672Z,33.00
2022-10-19T04:50:46.021Z,32.30
2022-10-19T04:53:12.550Z,26.80
2022-10-19T04:55:42.824Z,58.95
2022-10-19T04:58:09.416Z,44.85
2022-10-19T05:00:38.523Z,28.48
2022-10-19T05:03:05.260Z,39.63
2022-10-19T05:05:33.669Z,42.77
2022-10-19T05:08:00.750Z,61.40
2022-10-19T05:10:27.235Z,48.10
2022-10-19T05:12:53.631Z,30.10
2022-10-19T05:15:20.243Z,41.63
2022-10-19T05:17:46.639Z,71.97
2022-10-19T05:20:13.096Z,97.15
2022-10-19T05:22:40.311Z,121.07
2022-10-19T05:25:07.709Z,49.17
2022-10-19T05:27:34.500Z,138.18
2022-10-19T05:30:01.028Z,66.23
2022-10-19T05:32:28.425Z,56.28
2022-10-19T05:34:54.811Z,110.97
2022-10-19T05:37:21.663Z,76.60
2022-10-19T05:39:48.032Z,101.47
2022-10-19T05:42:14.427Z,41.67
2022-10-19T05:44:40.923Z,38.40
2022-10-19T05:47:07.499Z,50.85
2022-10-19T05:49:34.001Z,51.90
2022-10-19T05:52:00.597Z,51.47
2022-10-19T05:54:28.493Z,40.07
2022-10-19T05:56:55.204Z,81.55
2022-10-19T05:59:22.309Z,33.90
2022-10-19T06:01:48.748Z,53.88
2022-10-19T06:04:15.155Z,66.78
2022-10-19T06:06:44.345Z,130.73
2022-10-19T06:09:10.986Z,125.22
2022-10-19T06:11:39.369Z,39.20
2022-10-19T06:14:09.319Z,49.90
2022-10-19T06:16:36.027Z,107.90
2022-10-19T06:19:03.140Z,48.90
2022-10-19T06:21:31.319Z,52.95
2022-10-19T06:24:00.338Z,32.80
2022-10-19T06:26:26.967Z,38.75
2022-10-19T06:28:56.636Z,44.70
2022-10-19T06:31:22.978Z,87.77
2022-10-19T06:33:49.753Z,68.93
2022-10-19T06:36:22.034Z,53.05
2022-10-19T06:38:49.118Z,40.30
2022-10-19T06:41:15.648Z,43.00
2022-10-19T06:43:43.368Z,41.50
2022-10-19T06:46:17.477Z,47.25
2022-10-19T06:48:43.945Z,49.42
2022-10-19T06:51:10.437Z,62.72
2022-10-19T06:53:37.145Z,38.88
2022-10-19T06:56:06.211Z,46.40
2022-10-19T06:58:37.101Z,48.13
2022-10-19T07:01:04.874Z,50.05
2022-10-19T07:03:31.223Z,50.10
2022-10-19T07:06:03.697Z,46.35
2022-10-19T07:08:31.782Z,40.33
2022-10-19T07:11:00.989Z,44.05
2022-10-19T07:13:28.758Z,42.75
2022-10-19T07:16:07.022Z,48.97
2022-10-19T07:18:35.047Z,36.92
2022-10-19T07:21:04.369Z,34.80
2022-10-19T07:23:32.680Z,34.22
2022-10-19T07:26:03.886Z,32.20
2022-10-19T07:28:30.686Z,32.47
2022-10-19T07:30:57.296Z,33.45
2022-10-19T07:33:23.826Z,29.73
2022-10-19T07:35:50.324Z,34.08
2022-10-19T07:38:16.741Z,28.33
2022-10-19T07:40:46.394Z,24.65
2022-10-19T07:43:14.019Z,29.98
2022-10-19T07:45:40.384Z,24.70
2022-10-19T07:48:06.811Z,24.88
2022-10-19T07:50:33.265Z,22.60
2022-10-19T07:52:59.612Z,18.80
2022-10-19T07:55:26.011Z,18.33
2022-10-19T07:57:52.349Z,19.60
2022-10-19T08:00:18.775Z,18.58
2022-10-19T08:03:00.112Z,18.27
2022-10-19T08:05:35.527Z,15.00
2022-10-19T08:08:01.939Z,13.40
2022-10-19T08:10:28.392Z,15.57
2022-10-19T08:12:54.754Z,15.20
2022-10-19T08:15:21.191Z,17.85
2022-10-19T08:17:47.563Z,19.65
2022-10-19T08:20:13.981Z,16.42
2022-10-19T08:22:41.782Z,14.47
2022-10-19T08:25:08.391Z,15.93
2022-10-19T08:30:06.477Z,18.83
2022-10-19T08:32:33.004Z,15.73
2022-10-19T08:34:59.578Z,21.83
2022-10-19T08:37:43.736Z,22.98
2022-10-19T08:40:31.824Z,19.23
2022-10-19T08:43:10.064Z,20.20
2022-10-19T08:45:53.548Z,20.02
2022-10-19T08:48:33.039Z,18.30
2022-10-19T08:51:00.613Z,22.92
2022-10-19T08:53:31.848Z,19.70
2022-10-19T08:56:18.354Z,18.95
2022-10-19T08:59:23.717Z,17.50
2022-10-19T09:01:56.998Z,18.53
2022-10-19T09:04:32.927Z,20.80
2022-10-19T09:07:29.225Z,19.10
2022-10-19T09:10:01.324Z,17.27
2022-10-19T09:12:45.420Z,19.98
2022-10-19T09:15:15.529Z,18.60
2022-10-19T09:17:41.962Z,19.65
2022-10-19T09:20:22.115Z,19.00
2022-10-19T09:23:03.295Z,22.85
2022-10-19T09:25:33.087Z,16.73
2022-10-19T09:28:20.206Z,20.57
2022-10-19T09:30:51.372Z,19.73
2022-10-19T09:33:43.978Z,17.30
2022-10-19T09:36:18.309Z,18.73
2022-10-19T09:38:50.365Z,21.30
2022-10-19T09:41:20.544Z,19.43
2022-10-19T09:43:53.329Z,18.13
2022-10-19T09:46:52.228Z,17.00
2022-10-19T09:49:37.874Z,20.90
2022-10-19T09:52:04.350Z,17.05
2022-10-19T09:54:37.460Z,15.43
2022-10-19T09:57:04.638Z,15.88
2022-10-19T09:59:36.263Z,17.65
2022-10-19T10:02:16.802Z,19.90
2022-10-19T10:04:55.377Z,18.13
2022-10-19T10:07:26.974Z,19.77
2022-10-19T10:09:53.423Z,14.73
2022-10-19T10:12:20.835Z,13.82
2022-10-19T10:14:49.880Z,14.32
2022-10-19T10:17:22.144Z,19.05
2022-10-19T10:20:06.878Z,15.43
2022-10-19T10:22:35.662Z,13.65
2022-10-19T10:25:11.036Z,15.95
2022-10-19T10:27:39.119Z,13.75
2022-10-19T10:30:15.624Z,15.25
2022-10-19T10:32:51.427Z,11.87
2022-10-19T10:35:25.924Z,14.25
2022-10-19T10:37:52.911Z,14.32
2022-10-19T10:40:24.337Z,12.85
2022-10-19T10:42:53.636Z,16.08
2022-10-19T10:45:29.148Z,15.83
2022-10-19T10:47:57.892Z,14.88
2022-10-19T10:50:30.696Z,14.45
2022-10-19T10:53:02.673Z,14.30
2022-10-19T10:55:30.832Z,18.05
2022-10-19T10:58:18.828Z,13.37
2022-10-19T11:00:46.720Z,13.60
2022-10-19T11:03:35.303Z,16.60
2022-10-19T11:06:04.926Z,17.23
2022-10-19T11:08:57.661Z,15.43
2022-10-19T11:11:30.520Z,16.60
2022-10-19T11:14:01.704Z,13.32
2022-10-19T11:16:44.830Z,16.25
2022-10-19T11:19:23.738Z,13.88
2022-10-19T11:22:10.115Z,17.85
2022-10-19T11:24:48.852Z,16.40
2022-10-19T11:27:25.225Z,15.95
2022-10-19T11:29:57.595Z,19.00
2022-10-19T11:32:46.006Z,13.18
2022-10-19T11:35:43.548Z,13.45
2022-10-19T11:38:27.411Z,13.00
2022-10-19T11:41:18.548Z,11.13
2022-10-19T11:44:22.934Z,11.57
2022-10-19T11:47:03.913Z,13.55
2022-10-19T11:49:55.258Z,9.30
2022-10-19T11:52:49.911Z,8.77
2022-10-19T11:55:33.546Z,12.05
2022-10-19T11:58:17.682Z,9.23
2022-10-19T12:01:00.111Z,9.98
2022-10-19T12:03:38.377Z,8.98
2022-10-19T12:06:31.775Z,11.10
2022-10-19T12:09:13.362Z,9.88
2022-10-19T12:11:51.542Z,12.93
2022-10-19T12:14:24.387Z,19.75
2022-10-19T12:16:57.036Z,10.98
2022-10-19T12:19:37.365Z,14.97
2022-10-19T12:22:06.182Z,10.68
2022-10-19T12:24:34.084Z,14.65
2022-10-19T12:27:01.633Z,14.18
2022-10-19T12:29:32.240Z,11.05
2022-10-19T12:32:00.920Z,9.57
2022-10-19T12:34:55.114Z,11.73
2022-10-19T12:37:48.014Z,10.10
2022-10-19T12:40:32.518Z,11.05
2022-10-19T12:43:18.343Z,11.93
2022-10-19T12:46:13.567Z,14.87
2022-10-19T12:48:40.057Z,10.90
2022-10-19T12:51:12.219Z,10.88
2022-10-19T12:53:42.667Z,12.32
2022-10-19T12:56:19.563Z,12.48
2022-10-19T12:58:57.863Z,9.93
2022-10-19T13:01:43.794Z,15.48
2022-10-19T13:04:18.322Z,11.50
2022-10-19T13:06:51.053Z,10.32
2022-10-19T13:09:30.161Z,11.15
2022-10-19T13:12:17.735Z,13.40
2022-10-19T13:14:51.745Z,14.13
2022-10-19T13:17:50.966Z,10.55
2022-10-19T13:20:17.264Z,10.63
2022-10-19T13:22:50.893Z,13.60
2022-10-19T13:25:17.332Z,10.43
2022-10-19T13:27:45.090Z,11.25
2022-10-19T13:30:43.993Z,14.63
2022-10-19T13:33:25.579Z,13.77
2022-10-19T13:36:02.269Z,13.80
2022-10-19T13:38:32.969Z,19.03
2022-10-19T13:41:07.026Z,15.88
2022-10-19T13:44:16.012Z,13.43
2022-10-19T13:46:52.120Z,23.23
2022-10-19T13:49:55.629Z,16.38
2022-10-19T13:52:46.768Z,14.93
2022-10-19T13:55:25.075Z,19.95
2022-10-19T13:58:28.104Z,14.57
2022-10-19T14:01:19.594Z,13.90
2022-10-19T14:04:07.951Z,15.63
2022-10-19T14:06:40.210Z,18.43
2022-10-19T14:09:31.400Z,25.77
2022-10-19T14:12:19.596Z,20.90
2022-10-19T14:14:45.976Z,17.00
2022-10-19T14:17:22.670Z,17.63
2022-10-19T14:19:55.298Z,20.67
2022-10-19T14:22:33.759Z,18.45
2022-10-19T14:25:13.551Z,17.90
2022-10-19T14:27:40.026Z,17.58
2022-10-19T14:30:07.208Z,16.63
2022-10-19T14:32:34.966Z,17.70
2022-10-19T14:35:13.370Z,19.95
2022-10-19T14:37:43.391Z,16.27
2022-10-19T14:40:26.553Z,18.63
2022-10-19T14:42:55.300Z,18.83
2022-10-19T14:45:24.904Z,16.57
2022-10-19T14:48:16.872Z,17.48
2022-10-19T14:50:49.405Z,16.38
2022-10-19T14:53:21.806Z,16.75
2022-10-19T14:55:51.731Z,18.92
2022-10-19T14:58:22.168Z,16.67
2022-10-19T15:00:50.483Z,17.05
2022-10-19T15:03:24.521Z,18.10
2022-10-19T15:05:56.542Z,17.30
2022-10-19T15:08:40.165Z,16.33
2022-10-19T15:11:07.621Z,16.20
2022-10-19T15:13:40.800Z,13.68
2022-10-19T15:16:29.713Z,17.92
2022-10-19T15:18:56.203Z,14.43
2022-10-19T15:21:22.678Z,15.18
2022-10-19T15:23:52.691Z,16.63
2022-10-19T15:26:28.920Z,16.73
2022-10-19T15:29:08.342Z,17.27
2022-10-19T15:31:35.338Z,15.85
2022-10-19T15:34:03.623Z,16.58
2022-10-19T15:36:31.594Z,13.90
2022-10-19T15:39:06.190Z,17.75
2022-10-19T15:41:44.684Z,14.32
2022-10-19T15:44:49.977Z,14.80
2022-10-19T15:47:16.423Z,13.50
2022-10-19T15:49:42.784Z,13.40
2022-10-19T15:52:21.123Z,15.80
2022-10-19T15:54:49.069Z,13.32
2022-10-19T15:57:27.412Z,13.40
2022-10-19T15:59:55.728Z,13.25
2022-10-19T16:02:24.998Z,13.57
2022-10-19T16:04:55.319Z,12.10
2022-10-19T16:07:27.054Z,13.80
2022-10-19T16:09:54.363Z,13.77
2022-10-19T16:12:22.215Z,14.18
2022-10-19T16:14:48.601Z,13.97
2022-10-19T16:17:16.005Z,14.65
2022-10-19T16:19:43.332Z,13.88
2022-10-19T16:22:09.887Z,14.40
2022-10-19T16:24:36.602Z,17.00
2022-10-19T16:27:03.197Z,14.10
2022-10-19T16:29:29.580Z,13.43
2022-10-19T16:31:55.988Z,13.63
2022-10-19T16:34:22.436Z,13.30
2022-10-19T16:36:48.801Z,12.88
2022-10-19T16:39:15.199Z,14.03
2022-10-19T16:41:41.575Z,14.10
2022-10-19T16:44:12.317Z,12.00
2022-10-19T16:46:39.030Z,13.68
2022-10-19T16:49:05.594Z,12.60
2022-10-19T16:51:42.381Z,11.97
2022-10-19T16:54:10.816Z,12.57
2022-10-19T16:56:44.629Z,14.80
2022-10-19T16:59:13.672Z,15.35
2022-10-19T17:01:40.666Z,13.07
2022-10-19T17:04:07.465Z,14.80
2022-10-19T17:06:34.236Z,12.10
2022-10-19T17:11:47.030Z,16.52
2022-10-19T17:14:13.465Z,18.08
2022-10-19T17:16:40.212Z,13.33
2022-10-19T17:19:08.416Z,16.23
2022-10-19T17:21:41.875Z,15.15
2022-10-19T17:24:16.979Z,18.38
2022-10-19T17:26:46.709Z,16.05
2022-10-19T17:29:13.361Z,15.43
2022-10-19T17:31:40.755Z,16.90
2022-10-19T17:34:08.402Z,16.80
2022-10-19T17:36:38.068Z,17.75
2022-10-19T17:39:08.315Z,15.77
2022-10-19T17:41:35.292Z,16.87
2022-10-19T17:44:03.465Z,16.45
2022-10-19T17:46:31.810Z,14.70
2022-10-19T17:48:58.596Z,20.10
2022-10-19T17:51:28.769Z,17.52
2022-10-19T17:54:01.346Z,16.17
2022-10-19T17:56:28.239Z,17.83
2022-10-19T17:58:56.080Z,16.83
2022-10-19T18:01:23.118Z,16.42
2022-10-19T18:03:50.580Z,15.23
2022-10-19T18:06:20.156Z,16.13
2022-10-19T18:08:52.295Z,17.27
2022-10-19T18:11:24.432Z,16.35
2022-10-19T18:13:52.586Z,18.35
2022-10-19T18:16:22.757Z,17.73
2022-10-19T18:18:51.771Z,17.13
2022-10-19T18:21:21.952Z,18.40
2022-10-19T18:23:48.793Z,15.07
2022-10-19T18:26:22.163Z,17.05
2022-10-19T18:28:50.184Z,17.30
2022-10-19T18:31:19.621Z,16.53
2022-10-19T18:33:54.896Z,16.30
2022-10-19T18:36:23.040Z,16.73
2022-10-19T18:38:54.085Z,17.35
2022-10-19T18:41:20.543Z,16.95
2022-10-19T18:43:52.484Z,14.90
2022-10-19T18:46:20.831Z,19.58
2022-10-19T18:48:47.982Z,17.80
2022-10-19T18:51:15.540Z,16.77
2022-10-19T18:53:42.502Z,17.65
2022-10-19T18:56:11.553Z,16.37
2022-10-19T18:58:38.840Z,15.02
2022-10-19T19:01:13.467Z,16.02
2022-10-19T19:03:42.785Z,16.60
2022-10-19T19:06:15.215Z,17.17
2022-10-19T19:08:42.139Z,18.73
2022-10-19T19:11:19.788Z,18.48
2022-10-19T19:13:57.240Z,15.93
2022-10-19T19:16:24.362Z,17.90
2022-10-19T19:18:51.122Z,15.15
2022-10-19T19:21:26.216Z,13.47
2022-10-19T19:23:54.455Z,17.45
2022-10-19T19:26:23.361Z,17.35
2022-10-19T19:28:51.719Z,15.77
2022-10-19T19:31:18.975Z,16.55
2022-10-19T19:33:46.957Z,14.63
2022-10-19T19:36:15.072Z,14.75
2022-10-19T19:38:42.308Z,15.25
2022-10-19T19:41:11.920Z,14.30
2022-10-19T19:43:39.197Z,18.23
2022-10-19T19:46:09.471Z,17.97
2022-10-19T19:48:36.791Z,13.02
2022-10-19T19:51:03.310Z,16.00
2022-10-19T19:53:29.722Z,15.68
2022-10-19T19:55:56.066Z,12.73
2022-10-19T19:58:22.462Z,14.77
2022-10-19T20:00:48.799Z,13.50
2022-10-19T20:03:15.776Z,15.82
2022-10-19T20:05:42.203Z,12.48
2022-10-19T20:08:09.325Z,14.48
2022-10-19T20:10:39.308Z,14.07
2022-10-19T20:13:05.756Z,15.40
2022-10-19T20:15:32.169Z,13.75
2022-10-19T20:17:58.534Z,12.70
2022-10-19T20:20:24.877Z,31.65
2022-10-19T20:22:51.223Z,14.23
2022-10-19T20:25:18.295Z,15.60
2022-10-19T20:27:44.663Z,14.75
2022-10-19T20:30:11.384Z,15.57
2022-10-19T20:32:38.331Z,16.15
2022-10-19T20:35:05.224Z,14.77
2022-10-19T20:37:32.260Z,14.95
2022-10-19T20:39:58.599Z,13.05
2022-10-19T20:42:25.131Z,17.10
2022-10-19T20:44:51.540Z,11.95
2022-10-19T20:47:17.918Z,16.37
2022-10-19T20:49:44.339Z,14.55
2022-10-19T20:52:10.723Z,14.23
2022-10-19T20:54:37.140Z,13.23
2022-10-19T20:57:03.664Z,13.63
2022-10-19T20:59:31.450Z,15.30
2022-10-19T21:01:57.976Z,15.63
2022-10-19T21:04:25.542Z,13.57
2022-10-19T21:06:52.579Z,15.38
2022-10-19T21:09:23.485Z,17.13
2022-10-19T21:11:51.252Z,13.53
2022-10-19T21:14:28.238Z,15.02
2022-10-19T21:16:56.823Z,17.10
2022-10-19T21:19:25.423Z,17.63
2022-10-19T21:21:55.681Z,15.65
2022-10-19T21:24:27.419Z,15.37
2022-10-19T21:26:53.926Z,15.32
2022-10-19T21:29:21.062Z,15.27
2022-10-19T21:31:49.646Z,15.70
2022-10-19T21:34:34.036Z,14.77
2022-10-19T21:37:00.775Z,15.07
2022-10-19T21:39:27.170Z,16.05
2022-10-19T21:41:53.635Z,15.15
2022-10-19T21:44:22.846Z,14.10
2022-10-19T21:46:49.596Z,15.43
2022-10-19T21:49:16.177Z,13.77
2022-10-19T21:51:51.927Z,14.90
2022-10-19T21:54:20.936Z,16.25
2022-10-19T21:56:47.902Z,13.25
2022-10-19T21:59:14.888Z,15.25
2022-10-19T22:01:42.025Z,13.67
2022-10-19T22:04:14.309Z,13.90
2022-10-19T22:06:41.988Z,14.77
2022-10-19T22:09:10.588Z,13.23
2022-10-19T22:11:37.168Z,14.48
2022-10-19T22:14:04.456Z,15.17
2022-10-19T22:16:32.061Z,12.95
2022-10-19T22:18:58.664Z,13.48
2022-10-19T22:21:29.912Z,14.63
2022-10-19T22:23:58.752Z,13.88
2022-10-19T22:26:28.909Z,13.50
2022-10-19T22:28:57.378Z,14.65
2022-10-19T22:31:25.401Z,13.30
2022-10-19T22:33:51.916Z,13.05
2022-10-19T22:36:18.952Z,18.25
2022-10-19T22:38:45.734Z,13.03
2022-10-19T22:41:12.115Z,14.65
2022-10-19T22:43:38.476Z,17.30
2022-10-19T22:46:04.828Z,15.15
2022-10-19T22:48:31.226Z,14.13
2022-10-19T22:50:57.608Z,14.07
2022-10-19T22:53:24.336Z,12.18
2022-10-19T22:55:51.588Z,14.35
2022-10-19T22:58:18.370Z,12.40
2022-10-19T23:00:44.818Z,12.80
2022-10-19T23:03:11.406Z,12.33
2022-10-19T23:05:37.815Z,14.93
2022-10-19T23:08:04.462Z,15.93
2022-10-19T23:10:32.592Z,12.85
2022-10-19T23:12:58.936Z,12.80
2022-10-19T23:15:25.307Z,12.47
2022-10-19T23:17:51.645Z,12.50
2022-10-19T23:20:18.083Z,12.52
2022-10-19T23:22:44.796Z,12.82
2022-10-19T23:25:11.144Z,14.23
2022-10-19T23:27:37.751Z,13.13
2022-10-19T23:30:04.684Z,12.13
2022-10-19T23:32:31.028Z,15.05
2022-10-19T23:34:57.372Z,14.52
2022-10-19T23:37:23.815Z,11.82
2022-10-19T23:39:50.176Z,12.70
2022-10-19T23:42:16.553Z,13.65
2022-10-19T23:44:42.934Z,11.90
2022-10-19T23:47:09.338Z,15.77
2022-10-19T23:49:35.703Z,15.55
2022-10-19T23:52:02.073Z,16.97
2022-10-19T23:54:28.437Z,13.10
2022-10-19T23:56:54.821Z,13.80
2022-10-19T23:59:21.314Z,13.07
